sensor_id;sensor_type;location;lat;lon;timestamp;pressure;altitude;pressure_sealevel;temperature;humidity
17383;BME280;8809;51.892;8.384;2023-05-12T00:01:57;100525.56;;;13.30;100.00
17383;BME280;8809;51.892;8.384;2023-05-12T00:04:24;100539.31;;;13.23;100.00
17383;BME280;8809;51.892;8.384;2023-05-12T00:06:53;100534.19;;;13.26;100.00
17383;BME280;8809;51.892;8.384;2023-05-12T00:09:20;100541.00;;;13.21;100.00
17383;BME280;8809;51.892;8.384;2023-05-12T00:11:47;100547.09;;;13.20;100.00
17383;BME280;8809;51.892;8.384;2023-05-12T00:14:14;100548.81;;;13.19;100.00
17383;BME280;8809;51.892;8.384;2023-05-12T00:16:41;100560.06;;;13.17;100.00
17383;BME280;8809;51.892;8.384;2023-05-12T00:19:08;100558.34;;;13.17;100.00
17383;BME280;8809;51.892;8.384;2023-05-12T00:21:35;100561.84;;;13.18;100.00
17383;BME280;8809;51.892;8.384;2023-05-12T00:24:04;100560.81;;;13.13;100.00
17383;BME280;8809;51.892;8.384;2023-05-12T00:26:31;100558.19;;;13.13;100.00
17383;BME280;8809;51.892;8.384;2023-05-12T00:28:58;100558.13;;;13.11;100.00
17383;BME280;8809;51.892;8.384;2023-05-12T00:31:25;100560.66;;;13.08;100.00
17383;BME280;8809;51.892;8.384;2023-05-12T00:33:52;100550.94;;;13.04;100.00
17383;BME280;8809;51.892;8.384;2023-05-12T00:36:19;100551.16;;;13.12;100.00
17383;BME280;8809;51.892;8.384;2023-05-12T00:38:46;100554.69;;;13.12;100.00
17383;BME280;8809;51.892;8.384;2023-05-12T00:41:14;100552.06;;;13.12;100.00
17383;BME280;8809;51.892;8.384;2023-05-12T00:43:41;100555.41;;;13.07;100.00
17383;BME280;8809;51.892;8.384;2023-05-12T00:46:09;100551.00;;;13.06;100.00
17383;BME280;8809;51.892;8.384;2023-05-12T00:48:36;100551.00;;;13.06;100.00
17383;BME280;8809;51.892;8.384;2023-05-12T00:51:04;100546.59;;;13.05;100.00
17383;BME280;8809;51.892;8.384;2023-05-12T00:53:32;100542.16;;;13.02;100.00
17383;BME280;8809;51.892;8.384;2023-05-12T00:56:01;100543.88;;;13.01;100.00
17383;BME280;8809;51.892;8.384;2023-05-12T00:58:31;100542.09;;;13.00;100.00
17383;BME280;8809;51.892;8.384;2023-05-12T01:00:58;100542.88;;;12.98;100.00
17383;BME280;8809;51.892;8.384;2023-05-12T01:03:26;100540.97;;;12.92;100.00
17383;BME280;8809;51.892;8.384;2023-05-12T01:05:59;100538.53;;;12.98;100.00
17383;BME280;8809;51.892;8.384;2023-05-12T01:08:32;100542.03;;;12.99;100.00
17383;BME280;8809;51.892;8.384;2023-05-12T01:11:00;100538.34;;;12.92;100.00
17383;BME280;8809;51.892;8.384;2023-05-12T01:13:27;100543.69;;;12.95;100.00
17383;BME280;8809;51.892;8.384;2023-05-12T01:15:58;100547.00;;;12.90;100.00
17383;BME280;8809;51.892;8.384;2023-05-12T01:18:27;100543.50;;;12.89;100.00
17383;BME280;8809;51.892;8.384;2023-05-12T01:20:55;100538.22;;;12.88;100.00
17383;BME280;8809;51.892;8.384;2023-05-12T01:23:26;100547.81;;;12.87;100.00
17383;BME280;8809;51.892;8.384;2023-05-12T01:26:01;100543.31;;;12.83;100.00
17383;BME280;8809;51.892;8.384;2023-05-12T01:28:29;100546.66;;;12.79;100.00
17383;BME280;8809;51.892;8.384;2023-05-12T01:30:57;100550.16;;;12.78;100.00
17383;BME280;8809;51.892;8.384;2023-05-12T01:33:24;100558.91;;;12.80;100.00
17383;BME280;8809;51.892;8.384;2023-05-12T01:35:52;100555.38;;;12.78;100.00
17383;BME280;8809;51.892;8.384;2023-05-12T01:38:18;100556.06;;;12.73;100.00
17383;BME280;8809;51.892;8.384;2023-05-12T01:40:45;100562.84;;;12.66;100.00
17383;BME280;8809;51.892;8.384;2023-05-12T01:43:14;100557.44;;;12.61;100.00
17383;BME280;8809;51.892;8.384;2023-05-12T01:45:42;100563.47;;;12.59;100.00
17383;BME280;8809;51.892;8.384;2023-05-12T01:48:09;100565.16;;;12.57;100.00
17383;BME280;8809;51.892;8.384;2023-05-12T01:50:36;100567.72;;;12.55;100.00
17383;BME280;8809;51.892;8.384;2023-05-12T01:53:03;100565.94;;;12.54;100.00
17383;BME280;8809;51.892;8.384;2023-05-12T01:55:32;100562.41;;;12.54;100.00
17383;BME280;8809;51.892;8.384;2023-05-12T01:58:00;100567.53;;;12.51;100.00
17383;BME280;8809;51.892;8.384;2023-05-12T02:00:29;100568.34;;;12.48;100.00
17383;BME280;8809;51.892;8.384;2023-05-12T02:02:56;100570.91;;;12.47;100.00
17383;BME280;8809;51.892;8.384;2023-05-12T02:05:24;100561.28;;;12.46;100.00
17383;BME280;8809;51.892;8.384;2023-05-12T02:07:51;100568.19;;;12.44;100.00
17383;BME280;8809;51.892;8.384;2023-05-12T02:10:18;100571.63;;;12.43;100.00
17383;BME280;8809;51.892;8.384;2023-05-12T02:12:45;100568.06;;;12.41;100.00
17383;BME280;8809;51.892;8.384;2023-05-12T02:15:12;100575.09;;;12.42;100.00
17383;BME280;8809;51.892;8.384;2023-05-12T02:17:40;100576.28;;;12.51;100.00
17383;BME280;8809;51.892;8.384;2023-05-12T02:20:08;100581.63;;;12.54;100.00
17383;BME280;8809;51.892;8.384;2023-05-12T02:22:36;100584.88;;;12.47;100.00
17383;BME280;8809;51.892;8.384;2023-05-12T02:25:04;100580.75;;;12.54;100.00
17383;BME280;8809;51.892;8.384;2023-05-12T02:27:33;100587.44;;;12.46;100.00
17383;BME280;8809;51.892;8.384;2023-05-12T02:30:00;100584.25;;;12.54;100.00
17383;BME280;8809;51.892;8.384;2023-05-12T02:32:27;100583.41;;;12.55;100.00
17383;BME280;8809;51.892;8.384;2023-05-12T02:34:56;100580.84;;;12.57;100.00
17383;BME280;8809;51.892;8.384;2023-05-12T02:37:23;100581.75;;;12.57;100.00
17383;BME280;8809;51.892;8.384;2023-05-12T02:39:50;100579.19;;;12.59;100.00
17383;BME280;8809;51.892;8.384;2023-05-12T02:42:17;100578.28;;;12.58;100.00
17383;BME280;8809;51.892;8.384;2023-05-12T02:44:44;100575.44;;;12.52;100.00
17383;BME280;8809;51.892;8.384;2023-05-12T02:47:11;100577.66;;;12.40;100.00
17383;BME280;8809;51.892;8.384;2023-05-12T02:49:38;100570.56;;;12.36;100.00
17383;BME280;8809;51.892;8.384;2023-05-12T02:52:07;100577.66;;;12.40;100.00
17383;BME280;8809;51.892;8.384;2023-05-12T02:54:34;100565.44;;;12.39;100.00
17383;BME280;8809;51.892;8.384;2023-05-12T02:57:03;100564.44;;;12.36;100.00
17383;BME280;8809;51.892;8.384;2023-05-12T02:59:30;100566.09;;;12.34;100.00
17383;BME280;8809;51.892;8.384;2023-05-12T03:01:57;100563.44;;;12.32;100.00
17383;BME280;8809;51.892;8.384;2023-05-12T03:04:24;100560.75;;;12.31;100.00
17383;BME280;8809;51.892;8.384;2023-05-12T03:06:52;100558.13;;;12.29;100.00
17383;BME280;8809;51.892;8.384;2023-05-12T03:09:20;100567.69;;;12.29;100.00
17383;BME280;8809;51.892;8.384;2023-05-12T03:11:47;100568.53;;;12.27;100.00
17383;BME280;8809;51.892;8.384;2023-05-12T03:14:14;100567.63;;;12.27;100.00
17383;BME280;8809;51.892;8.384;2023-05-12T03:16:41;100570.25;;;12.27;100.00
17383;BME280;8809;51.892;8.384;2023-05-12T03:19:08;100571.84;;;12.23;100.00
17383;BME280;8809;51.892;8.384;2023-05-12T03:21:35;100571.19;;;12.29;100.00
17383;BME280;8809;51.892;8.384;2023-05-12T03:24:03;100571.91;;;12.25;100.00
17383;BME280;8809;51.892;8.384;2023-05-12T03:26:32;100562.22;;;12.22;100.00
17383;BME280;8809;51.892;8.384;2023-05-12T03:28:59;100569.16;;;12.20;100.00
17383;BME280;8809;51.892;8.384;2023-05-12T03:31:26;100572.69;;;12.22;100.00
17383;BME280;8809;51.892;8.384;2023-05-12T03:33:53;100563.91;;;12.20;100.00
17383;BME280;8809;51.892;8.384;2023-05-12T03:36:20;100570.25;;;12.27;100.00
17383;BME280;8809;51.892;8.384;2023-05-12T03:38:48;100575.41;;;12.25;100.00
17383;BME280;8809;51.892;8.384;2023-05-12T03:41:16;100573.56;;;12.23;100.00
17383;BME280;8809;51.892;8.384;2023-05-12T03:43:44;100573.63;;;12.24;100.00
17383;BME280;8809;51.892;8.384;2023-05-12T03:46:11;100574.59;;;12.26;100.00
17383;BME280;8809;51.892;8.384;2023-05-12T03:48:38;100579.22;;;12.35;100.00
17383;BME280;8809;51.892;8.384;2023-05-12T03:51:05;100575.72;;;12.35;100.00
17383;BME280;8809;51.892;8.384;2023-05-12T03:53:32;100571.97;;;12.26;100.00
17383;BME280;8809;51.892;8.384;2023-05-12T03:56:02;100573.75;;;12.27;100.00
17383;BME280;8809;51.892;8.384;2023-05-12T03:58:29;100577.25;;;12.28;100.00
17383;BME280;8809;51.892;8.384;2023-05-12T04:00:58;100578.88;;;12.24;100.00
17383;BME280;8809;51.892;8.384;2023-05-12T04:03:26;100579.22;;;12.35;100.00
17383;BME280;8809;51.892;8.384;2023-05-12T04:05:56;100582.03;;;12.40;100.00
17383;BME280;8809;51.892;8.384;2023-05-12T04:08:24;100590.78;;;12.42;100.00
17383;BME280;8809;51.892;8.384;2023-05-12T04:10:53;100592.56;;;12.43;100.00
17383;BME280;8809;51.892;8.384;2023-05-12T04:13:20;100594.16;;;12.38;100.00
17383;BME280;8809;51.892;8.384;2023-05-12T04:15:47;100593.31;;;12.39;100.00
17383;BME280;8809;51.892;8.384;2023-05-12T04:18:16;100592.38;;;12.37;100.00
17383;BME280;8809;51.892;8.384;2023-05-12T04:20:43;100597.81;;;12.43;100.00
17383;BME280;8809;51.892;8.384;2023-05-12T04:23:11;100606.13;;;12.31;100.00
17383;BME280;8809;51.892;8.384;2023-05-12T04:25:40;100601.63;;;12.27;100.00
17383;BME280;8809;51.892;8.384;2023-05-12T04:28:08;100601.81;;;12.33;100.00
17383;BME280;8809;51.892;8.384;2023-05-12T04:30:35;100606.41;;;12.39;100.00
17383;BME280;8809;51.892;8.384;2023-05-12T04:33:04;100612.53;;;12.39;100.00
17383;BME280;8809;51.892;8.384;2023-05-12T04:35:33;100613.72;;;12.49;100.00
17383;BME280;8809;51.892;8.384;2023-05-12T04:38:01;100617.06;;;12.45;100.00
17383;BME280;8809;51.892;8.384;2023-05-12T04:40:29;100615.69;;;12.56;100.00
17383;BME280;8809;51.892;8.384;2023-05-12T04:42:58;100617.56;;;12.60;100.00
17383;BME280;8809;51.892;8.384;2023-05-12T04:45:26;100621.06;;;12.59;100.00
17383;BME280;8809;51.892;8.384;2023-05-12T04:47:53;100624.59;;;12.61;100.00
17383;BME280;8809;51.892;8.384;2023-05-12T04:50:21;100623.69;;;12.60;100.00
17383;BME280;8809;51.892;8.384;2023-05-12T04:52:49;100633.50;;;12.66;100.00
17383;BME280;8809;51.892;8.384;2023-05-12T04:55:16;100642.63;;;12.79;100.00
17383;BME280;8809;51.892;8.384;2023-05-12T04:57:44;100645.94;;;12.73;100.00
17383;BME280;8809;51.892;8.384;2023-05-12T05:00:12;100652.59;;;12.63;100.00
17383;BME280;8809;51.892;8.384;2023-05-12T05:02:39;100654.81;;;12.77;100.00
17383;BME280;8809;51.892;8.384;2023-05-12T05:05:07;100654.75;;;12.75;100.00
17383;BME280;8809;51.892;8.384;2023-05-12T05:07:35;100657.38;;;12.75;100.00
17383;BME280;8809;51.892;8.384;2023-05-12T05:10:04;100661.97;;;12.82;100.00
17383;BME280;8809;51.892;8.384;2023-05-12T05:12:32;100669.09;;;12.86;100.00
17383;BME280;8809;51.892;8.384;2023-05-12T05:14:59;100667.50;;;12.91;100.00
17383;BME280;8809;51.892;8.384;2023-05-12T05:17:29;100675.59;;;12.99;100.00
17383;BME280;8809;51.892;8.384;2023-05-12T05:19:56;100674.47;;;12.91;100.00
17383;BME280;8809;51.892;8.384;2023-05-12T05:22:24;100678.13;;;12.96;100.00
17383;BME280;8809;51.892;8.384;2023-05-12T05:24:51;100683.63;;;13.04;100.00
17383;BME280;8809;51.892;8.384;2023-05-12T05:27:22;100687.19;;;13.06;100.00
17383;BME280;8809;51.892;8.384;2023-05-12T05:29:50;100687.97;;;13.03;100.00
17383;BME280;8809;51.892;8.384;2023-05-12T05:32:17;100686.34;;;13.07;100.00
17383;BME280;8809;51.892;8.384;2023-05-12T05:34:44;100690.41;;;12.98;100.00
17383;BME280;8809;51.892;8.384;2023-05-12T05:37:11;100697.75;;;13.09;100.00
17383;BME280;8809;51.892;8.384;2023-05-12T05:39:38;100693.44;;;13.11;100.00
17383;BME280;8809;51.892;8.384;2023-05-12T05:42:06;100702.78;;;13.02;100.00
17383;BME280;8809;51.892;8.384;2023-05-12T05:44:34;100706.00;;;13.19;100.00
17383;BME280;8809;51.892;8.384;2023-05-12T05:47:01;100704.06;;;13.14;100.00
17383;BME280;8809;51.892;8.384;2023-05-12T05:49:28;100705.09;;;13.19;100.00
17383;BME280;8809;51.892;8.384;2023-05-12T05:51:55;100703.31;;;13.18;100.00
17383;BME280;8809;51.892;8.384;2023-05-12T05:54:22;100710.44;;;13.22;100.00
17383;BME280;8809;51.892;8.384;2023-05-12T05:56:49;100715.50;;;13.16;100.00
17383;BME280;8809;51.892;8.384;2023-05-12T05:59:16;100713.78;;;13.16;100.00
17383;BME280;8809;51.892;8.384;2023-05-12T06:01:45;100717.34;;;13.20;100.00
17383;BME280;8809;51.892;8.384;2023-05-12T06:04:12;100716.41;;;13.18;100.00
17383;BME280;8809;51.892;8.384;2023-05-12T06:06:39;100716.16;;;13.37;100.00
17383;BME280;8809;51.892;8.384;2023-05-12T06:09:06;100723.59;;;13.50;100.00
17383;BME280;8809;51.892;8.384;2023-05-12T06:11:35;100736.53;;;13.46;100.00
17383;BME280;8809;51.892;8.384;2023-05-12T06:14:02;100733.00;;;13.44;100.00
17383;BME280;8809;51.892;8.384;2023-05-12T06:16:29;100729.38;;;13.40;100.00
17383;BME280;8809;51.892;8.384;2023-05-12T06:18:57;100742.47;;;13.40;100.00
17383;BME280;8809;51.892;8.384;2023-05-12T06:21:25;100747.91;;;13.46;100.00
17383;BME280;8809;51.892;8.384;2023-05-12T06:23:52;100737.25;;;13.40;100.00
17383;BME280;8809;51.892;8.384;2023-05-12T06:26:21;100744.16;;;13.38;100.00
17383;BME280;8809;51.892;8.384;2023-05-12T06:28:48;100748.63;;;13.41;100.00
17383;BME280;8809;51.892;8.384;2023-05-12T06:31:15;100747.84;;;13.43;100.00
17383;BME280;8809;51.892;8.384;2023-05-12T06:33:42;100748.19;;;13.55;100.00
17383;BME280;8809;51.892;8.384;2023-05-12T06:36:11;100744.97;;;13.62;100.00
17383;BME280;8809;51.892;8.384;2023-05-12T06:38:37;100747.63;;;13.64;100.00
17383;BME280;8809;51.892;8.384;2023-05-12T06:41:04;100750.88;;;13.57;100.00
17383;BME280;8809;51.892;8.384;2023-05-12T06:43:32;100751.69;;;13.54;100.00
17383;BME280;8809;51.892;8.384;2023-05-12T06:45:58;100751.78;;;13.57;100.00
17383;BME280;8809;51.892;8.384;2023-05-12T06:48:26;100754.78;;;13.69;100.00
17383;BME280;8809;51.892;8.384;2023-05-12T06:50:53;100758.13;;;13.92;100.00
17383;BME280;8809;51.892;8.384;2023-05-12T06:53:22;100758.75;;;13.84;100.00
17383;BME280;8809;51.892;8.384;2023-05-12T06:55:50;100757.88;;;13.85;100.00
17383;BME280;8809;51.892;8.384;2023-05-12T06:58:18;100761.53;;;13.90;100.00
17383;BME280;8809;51.892;8.384;2023-05-12T07:00:47;100754.69;;;13.95;100.00
17383;BME280;8809;51.892;8.384;2023-05-12T07:03:14;100758.16;;;13.94;100.00
17383;BME280;8809;51.892;8.384;2023-05-12T07:05:41;100752.34;;;14.04;100.00
17383;BME280;8809;51.892;8.384;2023-05-12T07:08:09;100759.00;;;14.23;100.00
17383;BME280;8809;51.892;8.384;2023-05-12T07:10:37;100757.38;;;14.26;100.00
17383;BME280;8809;51.892;8.384;2023-05-12T07:13:04;100757.53;;;14.31;100.00
17383;BME280;8809;51.892;8.384;2023-05-12T07:15:32;100752.63;;;14.41;100.00
17383;BME280;8809;51.892;8.384;2023-05-12T07:17:59;100757.56;;;14.62;100.00
17383;BME280;8809;51.892;8.384;2023-05-12T07:20:26;100754.13;;;14.65;100.00
17383;BME280;8809;51.892;8.384;2023-05-12T07:22:54;100761.66;;;14.51;100.00
17383;BME280;8809;51.892;8.384;2023-05-12T07:25:21;100762.34;;;14.45;100.00
17383;BME280;8809;51.892;8.384;2023-05-12T07:27:50;100758.94;;;14.48;100.00
17383;BME280;8809;51.892;8.384;2023-05-12T07:30:17;100762.69;;;14.58;100.00
17383;BME280;8809;51.892;8.384;2023-05-12T07:32:44;100766.31;;;14.94;100.00
17383;BME280;8809;51.892;8.384;2023-05-12T07:35:11;100761.31;;;14.72;100.00
17383;BME280;8809;51.892;8.384;2023-05-12T07:37:38;100762.22;;;14.72;100.00
17383;BME280;8809;51.892;8.384;2023-05-12T07:40:07;100759.88;;;14.83;100.00
17383;BME280;8809;51.892;8.384;2023-05-12T07:42:34;100761.56;;;14.81;100.00
17383;BME280;8809;51.892;8.384;2023-05-12T07:45:03;100758.94;;;14.81;100.00
17383;BME280;8809;51.892;8.384;2023-05-12T07:47:31;100754.06;;;14.95;100.00
17383;BME280;8809;51.892;8.384;2023-05-12T07:49:59;100762.16;;;15.02;100.00
17383;BME280;8809;51.892;8.384;2023-05-12T07:52:29;100752.56;;;15.04;100.00
17383;BME280;8809;51.892;8.384;2023-05-12T07:55:12;100759.66;;;15.07;100.00
17383;BME280;8809;51.892;8.384;2023-05-12T07:57:40;100755.25;;;15.06;100.00
17383;BME280;8809;51.892;8.384;2023-05-12T08:00:10;100754.47;;;15.10;100.00
17383;BME280;8809;51.892;8.384;2023-05-12T08:02:38;100761.06;;;15.29;100.00
17383;BME280;8809;51.892;8.384;2023-05-12T08:05:06;100760.00;;;15.20;100.00
17383;BME280;8809;51.892;8.384;2023-05-12T08:07:34;100764.59;;;15.29;100.00
17383;BME280;8809;51.892;8.384;2023-05-12T08:10:02;100769.94;;;15.32;100.00
17383;BME280;8809;51.892;8.384;2023-05-12T08:12:36;100760.63;;;15.45;100.00
17383;BME280;8809;51.892;8.384;2023-05-12T08:15:03;100772.03;;;15.45;100.00
17383;BME280;8809;51.892;8.384;2023-05-12T08:17:34;100764.19;;;15.47;100.00
17383;BME280;8809;51.892;8.384;2023-05-12T08:20:02;100763.50;;;15.54;100.00
17383;BME280;8809;51.892;8.384;2023-05-12T08:22:29;100771.22;;;15.84;100.00
17383;BME280;8809;51.892;8.384;2023-05-12T08:24:57;100778.91;;;15.76;100.00
17383;BME280;8809;51.892;8.384;2023-05-12T08:27:26;100776.44;;;15.82;100.00
17383;BME280;8809;51.892;8.384;2023-05-12T08:29:56;100773.19;;;15.92;100.00
17383;BME280;8809;51.892;8.384;2023-05-12T08:32:28;100773.31;;;15.99;100.00
17383;BME280;8809;51.892;8.384;2023-05-12T08:34:56;100778.66;;;16.02;100.00
17383;BME280;8809;51.892;8.384;2023-05-12T08:37:23;100772.97;;;16.22;100.00
17383;BME280;8809;51.892;8.384;2023-05-12T08:39:50;100777.56;;;16.34;100.00
17383;BME280;8809;51.892;8.384;2023-05-12T08:42:26;100780.44;;;16.43;100.00
17383;BME280;8809;51.892;8.384;2023-05-12T08:44:58;100772.31;;;16.32;100.00
17383;BME280;8809;51.892;8.384;2023-05-12T08:47:26;100785.47;;;16.34;100.00
17383;BME280;8809;51.892;8.384;2023-05-12T08:49:58;100776.78;;;16.38;100.00
17383;BME280;8809;51.892;8.384;2023-05-12T08:52:26;100777.84;;;16.46;100.00
17383;BME280;8809;51.892;8.384;2023-05-12T08:54:54;100775.44;;;16.57;100.00
17383;BME280;8809;51.892;8.384;2023-05-12T08:57:21;100782.00;;;16.77;100.00
17383;BME280;8809;51.892;8.384;2023-05-12T08:59:52;100780.28;;;16.78;100.00
17383;BME280;8809;51.892;8.384;2023-05-12T09:02:20;100783.19;;;16.93;100.00
17383;BME280;8809;51.892;8.384;2023-05-12T09:04:57;100779.31;;;17.22;100.00
17383;BME280;8809;51.892;8.384;2023-05-12T09:07:25;100772.25;;;17.18;100.00
17383;BME280;8809;51.892;8.384;2023-05-12T09:09:57;100774.31;;;17.36;100.00
17383;BME280;8809;51.892;8.384;2023-05-12T09:12:30;100771.91;;;17.51;100.00
17383;BME280;8809;51.892;8.384;2023-05-12T09:15:04;100781.09;;;17.73;100.00
17383;BME280;8809;51.892;8.384;2023-05-12T09:17:32;100769.53;;;17.65;100.00
17383;BME280;8809;51.892;8.384;2023-05-12T09:20:01;100777.66;;;17.77;100.00
17383;BME280;8809;51.892;8.384;2023-05-12T09:22:29;100771.75;;;17.98;100.00
17383;BME280;8809;51.892;8.384;2023-05-12T09:24:59;100771.25;;;18.23;100.00
17383;BME280;8809;51.892;8.384;2023-05-12T09:27:27;100780.31;;;18.42;100.00
17383;BME280;8809;51.892;8.384;2023-05-12T09:29:55;100767.41;;;18.68;100.00
17383;BME280;8809;51.892;8.384;2023-05-12T09:32:29;100777.28;;;18.82;100.00
17383;BME280;8809;51.892;8.384;2023-05-12T09:35:03;100777.34;;;18.88;100.00
17383;BME280;8809;51.892;8.384;2023-05-12T09:37:32;100769.56;;;19.02;100.00
17383;BME280;8809;51.892;8.384;2023-05-12T09:40:00;100768.81;;;19.17;100.00
17383;BME280;8809;51.892;8.384;2023-05-12T09:42:28;100773.38;;;19.33;100.00
17383;BME280;8809;51.892;8.384;2023-05-12T09:44:59;100761.13;;;19.41;100.00
17383;BME280;8809;51.892;8.384;2023-05-12T09:47:33;100764.75;;;19.51;100.00
17383;BME280;8809;51.892;8.384;2023-05-12T09:50:04;100765.69;;;19.57;100.00
17383;BME280;8809;51.892;8.384;2023-05-12T09:52:35;100760.47;;;19.73;100.00
17383;BME280;8809;51.892;8.384;2023-05-12T09:55:06;100763.19;;;19.80;100.00
17383;BME280;8809;51.892;8.384;2023-05-12T09:57:39;100764.19;;;19.96;100.00
17383;BME280;8809;51.892;8.384;2023-05-12T10:00:09;100766.88;;;20.04;100.00
17383;BME280;8809;51.892;8.384;2023-05-12T10:02:40;100765.13;;;20.12;100.00
17383;BME280;8809;51.892;8.384;2023-05-12T10:05:13;100766.94;;;20.16;100.00
17383;BME280;8809;51.892;8.384;2023-05-12T10:07:43;100759.06;;;20.28;100.00
17383;BME280;8809;51.892;8.384;2023-05-12T10:10:14;100760.09;;;20.56;100.00
17383;BME280;8809;51.892;8.384;2023-05-12T10:12:43;100761.81;;;20.48;100.00
17383;BME280;8809;51.892;8.384;2023-05-12T10:15:12;100762.72;;;20.59;100.00
17383;BME280;8809;51.892;8.384;2023-05-12T10:17:43;100757.47;;;20.68;100.00
17383;BME280;8809;51.892;8.384;2023-05-12T10:20:15;100768.13;;;20.76;100.00
17383;BME280;8809;51.892;8.384;2023-05-12T10:22:43;100755.75;;;20.82;100.00
17383;BME280;8809;51.892;8.384;2023-05-12T10:25:13;100764.56;;;20.87;100.00
17383;BME280;8809;51.892;8.384;2023-05-12T10:27:41;100769.03;;;20.91;100.00
17383;BME280;8809;51.892;8.384;2023-05-12T10:30:09;100766.38;;;21.06;100.00
17383;BME280;8809;51.892;8.384;2023-05-12T10:32:37;100774.41;;;21.28;100.00
17383;BME280;8809;51.892;8.384;2023-05-12T10:35:08;100773.53;;;21.35;100.00
17383;BME280;8809;51.892;8.384;2023-05-12T10:37:38;100775.28;;;21.27;100.00
17383;BME280;8809;51.892;8.384;2023-05-12T10:40:06;100768.22;;;21.26;100.00
17383;BME280;8809;51.892;8.384;2023-05-12T10:42:37;100773.53;;;21.35;100.00
17383;BME280;8809;51.892;8.384;2023-05-12T10:45:14;100765.56;;;21.53;100.00
17383;BME280;8809;51.892;8.384;2023-05-12T10:47:43;100758.47;;;21.63;100.00
17383;BME280;8809;51.892;8.384;2023-05-12T10:50:11;100759.31;;;21.83;100.00
17383;BME280;8809;51.892;8.384;2023-05-12T10:52:51;100761.94;;;22.13;100.00
17383;BME280;8809;51.892;8.384;2023-05-12T10:55:29;100763.69;;;22.25;100.00
17383;BME280;8809;51.892;8.384;2023-05-12T10:58:05;100765.47;;;22.23;100.00
17383;BME280;8809;51.892;8.384;2023-05-12T11:00:43;100751.25;;;22.35;100.00
17383;BME280;8809;51.892;8.384;2023-05-12T11:03:13;100759.22;;;22.39;100.00
17383;BME280;8809;51.892;8.384;2023-05-12T11:05:42;100762.69;;;22.50;100.00
17383;BME280;8809;51.892;8.384;2023-05-12T11:08:17;100758.22;;;22.65;100.00
17383;BME280;8809;51.892;8.384;2023-05-12T11:10:44;100754.59;;;22.73;100.00
17383;BME280;8809;51.892;8.384;2023-05-12T11:13:11;100769.66;;;22.79;100.00
17383;BME280;8809;51.892;8.384;2023-05-12T11:15:42;100766.06;;;22.95;100.00
17383;BME280;8809;51.892;8.384;2023-05-12T11:18:09;100762.50;;;22.96;100.00
17383;BME280;8809;51.892;8.384;2023-05-12T11:20:37;100764.22;;;23.00;100.00
17383;BME280;8809;51.892;8.384;2023-05-12T11:23:05;100758.00;;;23.06;100.00
17383;BME280;8809;51.892;8.384;2023-05-12T11:25:34;100772.16;;;23.11;100.00
17383;BME280;8809;51.892;8.384;2023-05-12T11:28:01;100770.31;;;23.20;100.00
17383;BME280;8809;51.892;8.384;2023-05-12T11:30:29;100769.34;;;23.30;100.00
17383;BME280;8809;51.892;8.384;2023-05-12T11:32:59;100771.06;;;23.36;100.00
17383;BME280;8809;51.892;8.384;2023-05-12T11:35:30;100764.81;;;23.42;100.00
17383;BME280;8809;51.892;8.384;2023-05-12T11:37:59;100770.97;;;23.53;100.00
17383;BME280;8809;51.892;8.384;2023-05-12T11:40:30;100780.66;;;23.61;100.00
17383;BME280;8809;51.892;8.384;2023-05-12T11:43:08;100785.94;;;23.66;100.00
17383;BME280;8809;51.892;8.384;2023-05-12T11:45:35;100777.84;;;23.75;100.00
17383;BME280;8809;51.892;8.384;2023-05-12T11:48:06;100778.63;;;23.88;100.00
17383;BME280;8809;51.892;8.384;2023-05-12T11:50:36;100783.06;;;23.89;100.00
17383;BME280;8809;51.892;8.384;2023-05-12T11:53:08;100778.59;;;23.92;100.00
17383;BME280;8809;51.892;8.384;2023-05-12T11:55:35;100779.41;;;23.97;100.00
17383;BME280;8809;51.892;8.384;2023-05-12T11:58:04;100774.88;;;24.05;100.00
17383;BME280;8809;51.892;8.384;2023-05-12T12:00:33;100780.19;;;24.10;100.00
17383;BME280;8809;51.892;8.384;2023-05-12T12:03:09;100783.66;;;24.17;100.00
17383;BME280;8809;51.892;8.384;2023-05-12T12:05:37;100775.78;;;24.04;100.00
17383;BME280;8809;51.892;8.384;2023-05-12T12:08:06;100776.88;;;23.85;100.00
17383;BME280;8809;51.892;8.384;2023-05-12T12:10:34;100791.06;;;23.89;100.00
17383;BME280;8809;51.892;8.384;2023-05-12T12:13:01;100782.16;;;23.93;100.00
17383;BME280;8809;51.892;8.384;2023-05-12T12:15:30;100784.84;;;23.88;100.00
17383;BME280;8809;51.892;8.384;2023-05-12T12:17:57;100784.06;;;23.77;100.00
17383;BME280;8809;51.892;8.384;2023-05-12T12:20:25;100789.47;;;23.68;100.00
17383;BME280;8809;51.892;8.384;2023-05-12T12:22:52;100788.59;;;23.67;100.00
17383;BME280;8809;51.892;8.384;2023-05-12T12:25:20;100791.16;;;23.77;100.00
17383;BME280;8809;51.892;8.384;2023-05-12T12:27:47;100788.34;;;23.93;100.00
17383;BME280;8809;51.892;8.384;2023-05-12T12:30:15;100790.06;;;24.02;100.00
17383;BME280;8809;51.892;8.384;2023-05-12T12:32:44;100776.72;;;24.02;100.00
17383;BME280;8809;51.892;8.384;2023-05-12T12:35:12;100785.63;;;23.99;100.00
17383;BME280;8809;51.892;8.384;2023-05-12T12:37:40;100785.72;;;23.89;100.00
17383;BME280;8809;51.892;8.384;2023-05-12T12:40:07;100783.97;;;23.88;100.00
17383;BME280;8809;51.892;8.384;2023-05-12T12:42:37;100783.94;;;23.91;100.00
17383;BME280;8809;51.892;8.384;2023-05-12T12:45:06;100796.41;;;23.87;100.00
17383;BME280;8809;51.892;8.384;2023-05-12T12:47:36;100791.97;;;23.86;100.00
17383;BME280;8809;51.892;8.384;2023-05-12T12:50:06;100791.16;;;23.80;100.00
17383;BME280;8809;51.892;8.384;2023-05-12T12:52:34;100793.00;;;23.70;100.00
17383;BME280;8809;51.892;8.384;2023-05-12T12:55:02;100800.19;;;23.63;99.87
17383;BME280;8809;51.892;8.384;2023-05-12T12:57:30;100790.44;;;23.58;100.00